Time;durP1;ratioP1;P1;durP2;ratioP2;P2;SDS_P1;SDS_P2;PMS_P1;PMS_P2;Temp;Humidity;BMP_temperature;BMP_pressure;BME280_temperature;BME280_humidity;BME280_pressure;Samples;Min_cycle;Max_cycle;Signal;HPM_P1;HPM_P2
2021/01/04 00:01:08;;;;;;;15.85;9.450001;;;;;;;0.4;78.33301;94615.62;;;;
2021/01/04 00:02:29;;;;;;;15.85;9.450001;;;;;;;0.4;78.33301;94615.62;;;;
2021/01/04 00:03:45;;;;;;;15.85;9.450001;;;;;;;0.4;78.33301;94615.62;;;;
2021/01/04 00:05:09;;;;;;;15.15;9.099999;;;;;;;0.38;78.3916;94619.37;;;;
2021/01/04 00:06:19;;;;;;;15.15;9.099999;;;;;;;0.38;78.3916;94619.37;;;;
2021/01/04 00:07:36;;;;;;;15.15;9.099999;;;;;;;0.38;78.3916;94619.37;;;;
2021/01/04 00:08:55;;;;;;;15.15;9.099999;;;;;;;0.38;78.3916;94619.37;;;;
2021/01/04 00:10:09;;;;;;;15.15;9.099999;;;;;;;0.38;78.3916;94619.37;;;;
2021/01/04 00:11:20;;;;;;;15.15;9.099999;;;;;;;0.38;78.3916;94619.37;;;;
2021/01/04 00:12:34;;;;;;;15.15;9.099999;;;;;;;0.38;78.3916;94619.37;;;;
2021/01/04 00:13:40;;;;;;;15.15;9.099999;;;;;;;0.38;78.3916;94619.37;;;;
2021/01/04 00:14:51;;;;;;;15.8;9.200002;;;;;;;0.35;78.38867;94619.27;;;;
2021/01/04 00:16:01;;;;;;;15.8;9.200002;;;;;;;0.35;78.38867;94619.27;;;;
2021/01/04 00:17:12;;;;;;;15.8;9.200002;;;;;;;0.35;78.38867;94619.27;;;;
2021/01/04 00:18:25;;;;;;;15.8;9.200002;;;;;;;0.35;78.38867;94619.27;;;;
2021/01/04 00:19:36;;;;;;;15.8;9.200002;;;;;;;0.35;78.38867;94619.27;;;;
2021/01/04 00:20:43;;;;;;;15.8;9.200002;;;;;;;0.35;78.38867;94619.27;;;;
2021/01/04 00:21:50;;;;;;;15.8;9.200002;;;;;;;0.35;78.38867;94619.27;;;;
2021/01/04 00:23:03;;;;;;;15.8;9.200002;;;;;;;0.35;78.38867;94619.27;;;;
2021/01/04 00:24:11;;;;;;;15.8;9.200002;;;;;;;0.35;78.38867;94619.27;;;;
2021/01/04 00:25:22;;;;;;;14.85;8.550001;;;;;;;0.35;78.51172;94621.51;;;;
2021/01/04 00:26:29;;;;;;;14.85;8.550001;;;;;;;0.35;78.51172;94621.51;;;;
2021/01/04 00:27:38;;;;;;;14.85;8.550001;;;;;;;0.35;78.51172;94621.51;;;;
2021/01/04 00:28:46;;;;;;;14.85;8.550001;;;;;;;0.35;78.51172;94621.51;;;;
2021/01/04 00:29:47;;;;;;;14.85;8.550001;;;;;;;0.35;78.51172;94621.51;;;;
2021/01/04 00:30:49;;;;;;;14.85;8.550001;;;;;;;0.35;78.51172;94621.51;;;;
2021/01/04 00:31:57;;;;;;;14.85;8.550001;;;;;;;0.35;78.51172;94621.51;;;;
2021/01/04 00:33:03;;;;;;;14.85;8.550001;;;;;;;0.35;78.51172;94621.51;;;;
2021/01/04 00:34:10;;;;;;;14.85;8.550001;;;;;;;0.35;78.51172;94621.51;;;;
2021/01/04 00:35:15;;;;;;;14.85;8.550001;;;;;;;0.35;78.51172;94621.51;;;;
2021/01/04 00:36:19;;;;;;;15.65;9.199999;;;;;;;0.36;78.48242;94616.13;;;;
2021/01/04 00:37:23;;;;;;;15.65;9.199999;;;;;;;0.36;78.48242;94616.13;;;;
2021/01/04 00:38:59;;;;;;;15.65;9.199999;;;;;;;0.36;78.48242;94616.13;;;;
2021/01/04 00:40:19;;;;;;;15.65;9.199999;;;;;;;0.36;78.48242;94616.13;;;;
2021/01/04 00:41:32;;;;;;;15.65;9.199999;;;;;;;0.36;78.48242;94616.13;;;;
2021/01/04 00:42:43;;;;;;;15.65;9.199999;;;;;;;0.36;78.48242;94616.13;;;;
2021/01/04 00:43:47;;;;;;;15.65;9.199999;;;;;;;0.36;78.48242;94616.13;;;;
2021/01/04 00:44:50;;;;;;;15.65;9.199999;;;;;;;0.36;78.48242;94616.13;;;;
2021/01/04 00:46:02;;;;;;;15.65;9.199999;;;;;;;0.36;78.48242;94616.13;;;;
2021/01/04 00:47:03;;;;;;;16.2;9.249999;;;;;;;0.43;78.3291;94617.8;;;;
2021/01/04 00:48:11;;;;;;;16.2;9.249999;;;;;;;0.43;78.3291;94617.8;;;;
2021/01/04 00:49:20;;;;;;;16.2;9.249999;;;;;;;0.43;78.3291;94617.8;;;;
2021/01/04 00:50:27;;;;;;;16.2;9.249999;;;;;;;0.43;78.3291;94617.8;;;;
2021/01/04 00:51:44;;;;;;;16.2;9.249999;;;;;;;0.43;78.3291;94617.8;;;;
2021/01/04 00:52:52;;;;;;;16.2;9.249999;;;;;;;0.43;78.3291;94617.8;;;;
2021/01/04 00:54:03;;;;;;;16.2;9.249999;;;;;;;0.43;78.3291;94617.8;;;;
2021/01/04 00:55:17;;;;;;;16.2;9.249999;;;;;;;0.43;78.3291;94617.8;;;;
2021/01/04 00:56:31;;;;;;;16.2;9.249999;;;;;;;0.43;78.3291;94617.8;;;;
2021/01/04 00:57:47;;;;;;;16.6;9.35;;;;;;;0.38;78.17285;94624.19;;;;
2021/01/04 00:59:08;;;;;;;16.6;9.35;;;;;;;0.38;78.17285;94624.19;;;;
2021/01/04 01:00:23;;;;;;;16.6;9.35;;;;;;;0.38;78.17285;94624.19;;;;
2021/01/04 01:01:28;;;;;;;16.6;9.35;;;;;;;0.38;78.17285;94624.19;;;;
2021/01/04 01:02:44;;;;;;;16.6;9.35;;;;;;;0.38;78.17285;94624.19;;;;
2021/01/04 01:04:03;;;;;;;16.6;9.35;;;;;;;0.38;78.17285;94624.19;;;;
2021/01/04 01:05:11;;;;;;;16.6;9.35;;;;;;;0.38;78.17285;94624.19;;;;
2021/01/04 01:06:16;;;;;;;16.6;9.35;;;;;;;0.38;78.17285;94624.19;;;;
2021/01/04 01:07:25;;;;;;;16.6;9.35;;;;;;;0.38;78.17285;94624.19;;;;
2021/01/04 01:09:03;;;;;;;17.6;9.55;;;;;;;0.35;78.31348;94628.15;;;;
2021/01/04 01:10:06;;;;;;;17.6;9.55;;;;;;;0.35;78.31348;94628.15;;;;
2021/01/04 01:11:09;;;;;;;17.6;9.55;;;;;;;0.35;78.31348;94628.15;;;;
2021/01/04 01:12:13;;;;;;;17.6;9.55;;;;;;;0.35;78.31348;94628.15;;;;
2021/01/04 01:13:28;;;;;;;17.6;9.55;;;;;;;0.35;78.31348;94628.15;;;;
2021/01/04 01:14:50;;;;;;;17.6;9.55;;;;;;;0.35;78.31348;94628.15;;;;
2021/01/04 01:16:07;;;;;;;17.6;9.55;;;;;;;0.35;78.31348;94628.15;;;;
2021/01/04 01:17:21;;;;;;;17.6;9.55;;;;;;;0.35;78.31348;94628.15;;;;
2021/01/04 01:22:34;;;;;;;16.1;9.55;;;;;;;0.38;78.22461;94633.59;;;;
2021/01/04 01:23:38;;;;;;;16.1;9.55;;;;;;;0.38;78.22461;94633.59;;;;
2021/01/04 01:24:40;;;;;;;16.1;9.55;;;;;;;0.38;78.22461;94633.59;;;;
2021/01/04 01:25:42;;;;;;;16.1;9.55;;;;;;;0.38;78.22461;94633.59;;;;
2021/01/04 01:26:48;;;;;;;16.1;9.55;;;;;;;0.38;78.22461;94633.59;;;;
2021/01/04 01:28:11;;;;;;;16.1;9.55;;;;;;;0.38;78.22461;94633.59;;;;
2021/01/04 01:32:31;;;;;;;16.6;9.2;;;;;;;0.38;78.09961;94637.05;;;;
2021/01/04 01:33:47;;;;;;;16.6;9.2;;;;;;;0.38;78.09961;94637.05;;;;
2021/01/04 01:35:11;;;;;;;16.6;9.2;;;;;;;0.38;78.09961;94637.05;;;;
2021/01/04 01:36:44;;;;;;;16.6;9.2;;;;;;;0.38;78.09961;94637.05;;;;
2021/01/04 01:38:01;;;;;;;16.6;9.2;;;;;;;0.38;78.09961;94637.05;;;;
2021/01/04 01:39:36;;;;;;;16.6;9.2;;;;;;;0.38;78.09961;94637.05;;;;
2021/01/04 01:40:59;;;;;;;17.6;9.750001;;;;;;;0.38;78.09961;94640.12;;;;
2021/01/04 01:42:22;;;;;;;17.6;9.750001;;;;;;;0.38;78.09961;94640.12;;;;
2021/01/04 01:43:57;;;;;;;17.6;9.750001;;;;;;;0.38;78.09961;94640.12;;;;
2021/01/04 01:45:05;;;;;;;17.6;9.750001;;;;;;;0.38;78.09961;94640.12;;;;
2021/01/04 01:46:17;;;;;;;17.6;9.750001;;;;;;;0.38;78.09961;94640.12;;;;
2021/01/04 01:47:27;;;;;;;17.6;9.750001;;;;;;;0.38;78.09961;94640.12;;;;
2021/01/04 01:48:36;;;;;;;17.6;9.750001;;;;;;;0.38;78.09961;94640.12;;;;
2021/01/04 01:49:52;;;;;;;17.6;9.750001;;;;;;;0.38;78.09961;94640.12;;;;
2021/01/04 01:51:03;;;;;;;14.45;9.250001;;;;;;;0.39;78.04883;94633.4;;;;
2021/01/04 01:52:15;;;;;;;14.45;9.250001;;;;;;;0.39;78.04883;94633.4;;;;
2021/01/04 01:53:30;;;;;;;14.45;9.250001;;;;;;;0.39;78.04883;94633.4;;;;
2021/01/04 01:54:45;;;;;;;14.45;9.250001;;;;;;;0.39;78.04883;94633.4;;;;
2021/01/04 01:56:01;;;;;;;14.45;9.250001;;;;;;;0.39;78.04883;94633.4;;;;
2021/01/04 01:57:14;;;;;;;14.45;9.250001;;;;;;;0.39;78.04883;94633.4;;;;
2021/01/04 01:58:28;;;;;;;14.45;9.250001;;;;;;;0.39;78.04883;94633.4;;;;
2021/01/04 01:59:43;;;;;;;14.45;9.250001;;;;;;;0.39;78.04883;94633.4;;;;
2021/01/04 02:01:01;;;;;;;14.45;9.250001;;;;;;;0.39;78.04883;94633.4;;;;
2021/01/04 02:02:07;;;;;;;16.5;9.799998;;;;;;;0.34;78.16602;94629.17;;;;
2021/01/04 02:03:17;;;;;;;16.5;9.799998;;;;;;;0.34;78.16602;94629.17;;;;
2021/01/04 02:04:27;;;;;;;16.5;9.799998;;;;;;;0.34;78.16602;94629.17;;;;
2021/01/04 02:05:41;;;;;;;16.5;9.799998;;;;;;;0.34;78.16602;94629.17;;;;
2021/01/04 02:07:03;;;;;;;16.5;9.799998;;;;;;;0.34;78.16602;94629.17;;;;
2021/01/04 02:08:10;;;;;;;16.5;9.799998;;;;;;;0.34;78.16602;94629.17;;;;
2021/01/04 02:09:16;;;;;;;16.5;9.799998;;;;;;;0.34;78.16602;94629.17;;;;
2021/01/04 02:10:22;;;;;;;16.5;9.799998;;;;;;;0.34;78.16602;94629.17;;;;
2021/01/04 02:11:30;;;;;;;16.5;9.799998;;;;;;;0.34;78.16602;94629.17;;;;
2021/01/04 02:12:37;;;;;;;16.55;9.5;;;;;;;0.39;78.30176;94641.78;;;;
2021/01/04 02:13:46;;;;;;;16.55;9.5;;;;;;;0.39;78.30176;94641.78;;;;
2021/01/04 02:14:58;;;;;;;16.55;9.5;;;;;;;0.39;78.30176;94641.78;;;;
2021/01/04 02:16:09;;;;;;;16.55;9.5;;;;;;;0.39;78.30176;94641.78;;;;
2021/01/04 02:17:14;;;;;;;16.55;9.5;;;;;;;0.39;78.30176;94641.78;;;;
2021/01/04 02:18:29;;;;;;;16.55;9.5;;;;;;;0.39;78.30176;94641.78;;;;
2021/01/04 02:19:44;;;;;;;16.55;9.5;;;;;;;0.39;78.30176;94641.78;;;;
2021/01/04 02:21:05;;;;;;;16.55;9.5;;;;;;;0.39;78.30176;94641.78;;;;
2021/01/04 02:22:43;;;;;;;16.55;9.5;;;;;;;0.39;78.30176;94641.78;;;;
2021/01/04 02:24:00;;;;;;;19.3;10.7;;;;;;;0.39;78.16406;94628.59;;;;
2021/01/04 02:25:04;;;;;;;19.3;10.7;;;;;;;0.39;78.16406;94628.59;;;;
2021/01/04 02:26:06;;;;;;;19.3;10.7;;;;;;;0.39;78.16406;94628.59;;;;
2021/01/04 02:27:12;;;;;;;19.3;10.7;;;;;;;0.39;78.16406;94628.59;;;;
2021/01/04 02:28:19;;;;;;;19.3;10.7;;;;;;;0.39;78.16406;94628.59;;;;
2021/01/04 02:29:25;;;;;;;19.3;10.7;;;;;;;0.39;78.16406;94628.59;;;;
2021/01/04 02:30:26;;;;;;;19.3;10.7;;;;;;;0.39;78.16406;94628.59;;;;
2021/01/04 02:31:26;;;;;;;19.3;10.7;;;;;;;0.39;78.16406;94628.59;;;;
2021/01/04 02:32:28;;;;;;;19.3;10.7;;;;;;;0.39;78.16406;94628.59;;;;
2021/01/04 02:33:29;;;;;;;17.45;10.3;;;;;;;0.35;78.22168;94628.56;;;;
2021/01/04 02:34:29;;;;;;;17.45;10.3;;;;;;;0.35;78.22168;94628.56;;;;
2021/01/04 02:35:34;;;;;;;17.45;10.3;;;;;;;0.35;78.22168;94628.56;;;;
2021/01/04 02:36:37;;;;;;;17.45;10.3;;;;;;;0.35;78.22168;94628.56;;;;
2021/01/04 02:37:42;;;;;;;17.45;10.3;;;;;;;0.35;78.22168;94628.56;;;;
2021/01/04 02:38:43;;;;;;;17.45;10.3;;;;;;;0.35;78.22168;94628.56;;;;
2021/01/04 02:40:00;;;;;;;17.45;10.3;;;;;;;0.35;78.22168;94628.56;;;;
2021/01/04 02:41:05;;;;;;;17.45;10.3;;;;;;;0.35;78.22168;94628.56;;;;
2021/01/04 02:42:06;;;;;;;17.45;10.3;;;;;;;0.35;78.22168;94628.56;;;;
2021/01/04 02:43:11;;;;;;;17.45;10.3;;;;;;;0.35;78.22168;94628.56;;;;
2021/01/04 02:44:12;;;;;;;19.2;10.65;;;;;;;0.32;78.28809;94623.61;;;;
2021/01/04 02:45:13;;;;;;;19.2;10.65;;;;;;;0.32;78.28809;94623.61;;;;
2021/01/04 02:46:17;;;;;;;19.2;10.65;;;;;;;0.32;78.28809;94623.61;;;;
2021/01/04 02:47:23;;;;;;;19.2;10.65;;;;;;;0.32;78.28809;94623.61;;;;
2021/01/04 02:48:41;;;;;;;19.2;10.65;;;;;;;0.32;78.28809;94623.61;;;;
2021/01/04 02:49:55;;;;;;;19.2;10.65;;;;;;;0.32;78.28809;94623.61;;;;
2021/01/04 02:51:07;;;;;;;19.2;10.65;;;;;;;0.32;78.28809;94623.61;;;;
2021/01/04 02:52:13;;;;;;;19.2;10.65;;;;;;;0.32;78.28809;94623.61;;;;
2021/01/04 02:53:23;;;;;;;19.2;10.65;;;;;;;0.32;78.28809;94623.61;;;;
2021/01/04 02:54:36;;;;;;;19.2;10.65;;;;;;;0.32;78.28809;94623.61;;;;
2021/01/04 02:55:47;;;;;;;17;10.3;;;;;;;0.36;78.24219;94626.73;;;;
2021/01/04 02:57:01;;;;;;;17;10.3;;;;;;;0.36;78.24219;94626.73;;;;
2021/01/04 02:58:10;;;;;;;17;10.3;;;;;;;0.36;78.24219;94626.73;;;;
2021/01/04 02:59:20;;;;;;;17;10.3;;;;;;;0.36;78.24219;94626.73;;;;
2021/01/04 03:00:56;;;;;;;17;10.3;;;;;;;0.36;78.24219;94626.73;;;;
2021/01/04 03:02:03;;;;;;;17;10.3;;;;;;;0.36;78.24219;94626.73;;;;
2021/01/04 03:03:07;;;;;;;17;10.3;;;;;;;0.36;78.24219;94626.73;;;;
2021/01/04 03:04:08;;;;;;;17;10.3;;;;;;;0.36;78.24219;94626.73;;;;
2021/01/04 03:05:11;;;;;;;17;10.3;;;;;;;0.36;78.24219;94626.73;;;;
2021/01/04 03:06:15;;;;;;;16.8;9.550002;;;;;;;0.34;78.18652;94635.39;;;;
2021/01/04 03:07:25;;;;;;;16.8;9.550002;;;;;;;0.34;78.18652;94635.39;;;;
2021/01/04 03:08:28;;;;;;;16.8;9.550002;;;;;;;0.34;78.18652;94635.39;;;;
2021/01/04 03:09:29;;;;;;;16.8;9.550002;;;;;;;0.34;78.18652;94635.39;;;;
2021/01/04 03:10:31;;;;;;;16.8;9.550002;;;;;;;0.34;78.18652;94635.39;;;;
2021/01/04 03:11:34;;;;;;;16.8;9.550002;;;;;;;0.34;78.18652;94635.39;;;;
2021/01/04 03:12:37;;;;;;;16.8;9.550002;;;;;;;0.34;78.18652;94635.39;;;;
2021/01/04 03:13:38;;;;;;;16.8;9.550002;;;;;;;0.34;78.18652;94635.39;;;;
2021/01/04 03:14:51;;;;;;;16.8;9.550002;;;;;;;0.34;78.18652;94635.39;;;;
2021/01/04 03:16:04;;;;;;;16.8;9.550002;;;;;;;0.34;78.18652;94635.39;;;;
2021/01/04 03:17:15;;;;;;;19.75;10.8;;;;;;;0.32;78.2666;94636.5;;;;
2021/01/04 03:18:25;;;;;;;19.75;10.8;;;;;;;0.32;78.2666;94636.5;;;;
2021/01/04 03:19:31;;;;;;;19.75;10.8;;;;;;;0.32;78.2666;94636.5;;;;
2021/01/04 03:20:36;;;;;;;19.75;10.8;;;;;;;0.32;78.2666;94636.5;;;;
2021/01/04 03:21:37;;;;;;;19.75;10.8;;;;;;;0.32;78.2666;94636.5;;;;
2021/01/04 03:22:39;;;;;;;19.75;10.8;;;;;;;0.32;78.2666;94636.5;;;;
2021/01/04 03:23:40;;;;;;;19.75;10.8;;;;;;;0.32;78.2666;94636.5;;;;
2021/01/04 03:24:46;;;;;;;19.75;10.8;;;;;;;0.32;78.2666;94636.5;;;;
2021/01/04 03:25:48;;;;;;;19.75;10.8;;;;;;;0.32;78.2666;94636.5;;;;
2021/01/04 03:26:53;;;;;;;18.35;11.35;;;;;;;0.36;78.26367;94636.41;;;;
2021/01/04 03:28:00;;;;;;;18.35;11.35;;;;;;;0.36;78.26367;94636.41;;;;
2021/01/04 03:29:02;;;;;;;18.35;11.35;;;;;;;0.36;78.26367;94636.41;;;;
2021/01/04 03:30:03;;;;;;;18.35;11.35;;;;;;;0.36;78.26367;94636.41;;;;
2021/01/04 03:31:05;;;;;;;18.35;11.35;;;;;;;0.36;78.26367;94636.41;;;;
2021/01/04 03:32:06;;;;;;;18.35;11.35;;;;;;;0.36;78.26367;94636.41;;;;
2021/01/04 03:33:07;;;;;;;18.35;11.35;;;;;;;0.36;78.26367;94636.41;;;;
2021/01/04 03:34:07;;;;;;;18.35;11.35;;;;;;;0.36;78.26367;94636.41;;;;
2021/01/04 03:35:08;;;;;;;18.35;11.35;;;;;;;0.36;78.26367;94636.41;;;;
2021/01/04 03:36:09;;;;;;;18.35;11.35;;;;;;;0.36;78.26367;94636.41;;;;
2021/01/04 03:37:10;;;;;;;18.35;11.35;;;;;;;0.36;78.26367;94636.41;;;;
2021/01/04 03:38:11;;;;;;;17.45;10.8;;;;;;;0.4;78.06152;94647.89;;;;
2021/01/04 03:39:12;;;;;;;17.45;10.8;;;;;;;0.4;78.06152;94647.89;;;;
2021/01/04 03:40:13;;;;;;;17.45;10.8;;;;;;;0.4;78.06152;94647.89;;;;
2021/01/04 03:41:15;;;;;;;17.45;10.8;;;;;;;0.4;78.06152;94647.89;;;;
2021/01/04 03:42:18;;;;;;;17.45;10.8;;;;;;;0.4;78.06152;94647.89;;;;
2021/01/04 03:43:18;;;;;;;17.45;10.8;;;;;;;0.4;78.06152;94647.89;;;;
2021/01/04 03:44:19;;;;;;;17.45;10.8;;;;;;;0.4;78.06152;94647.89;;;;
2021/01/04 03:45:20;;;;;;;17.45;10.8;;;;;;;0.4;78.06152;94647.89;;;;
2021/01/04 03:46:20;;;;;;;17.45;10.8;;;;;;;0.4;78.06152;94647.89;;;;
2021/01/04 03:47:21;;;;;;;17.45;10.8;;;;;;;0.4;78.06152;94647.89;;;;
2021/01/04 03:48:22;;;;;;;18;11;;;;;;;0.4;77.96973;94639.01;;;;
2021/01/04 03:49:23;;;;;;;18;11;;;;;;;0.4;77.96973;94639.01;;;;
2021/01/04 03:50:24;;;;;;;18;11;;;;;;;0.4;77.96973;94639.01;;;;
2021/01/04 03:51:24;;;;;;;18;11;;;;;;;0.4;77.96973;94639.01;;;;
2021/01/04 03:52:25;;;;;;;18;11;;;;;;;0.4;77.96973;94639.01;;;;
2021/01/04 03:53:25;;;;;;;18;11;;;;;;;0.4;77.96973;94639.01;;;;
2021/01/04 03:54:26;;;;;;;18;11;;;;;;;0.4;77.96973;94639.01;;;;
2021/01/04 03:55:27;;;;;;;18;11;;;;;;;0.4;77.96973;94639.01;;;;
2021/01/04 03:56:27;;;;;;;18;11;;;;;;;0.4;77.96973;94639.01;;;;
2021/01/04 03:57:28;;;;;;;18;11;;;;;;;0.4;77.96973;94639.01;;;;
2021/01/04 03:58:28;;;;;;;18;11;;;;;;;0.4;77.96973;94639.01;;;;
2021/01/04 03:59:29;;;;;;;18.9;10.6;;;;;;;0.4;77.85449;94635.03;;;;
2021/01/04 04:00:29;;;;;;;18.9;10.6;;;;;;;0.4;77.85449;94635.03;;;;
2021/01/04 04:01:30;;;;;;;18.9;10.6;;;;;;;0.4;77.85449;94635.03;;;;
2021/01/04 04:02:30;;;;;;;18.9;10.6;;;;;;;0.4;77.85449;94635.03;;;;
2021/01/04 04:03:31;;;;;;;18.9;10.6;;;;;;;0.4;77.85449;94635.03;;;;
2021/01/04 04:04:31;;;;;;;18.9;10.6;;;;;;;0.4;77.85449;94635.03;;;;
2021/01/04 04:05:32;;;;;;;18.9;10.6;;;;;;;0.4;77.85449;94635.03;;;;
2021/01/04 04:06:33;;;;;;;18.9;10.6;;;;;;;0.4;77.85449;94635.03;;;;
2021/01/04 04:07:33;;;;;;;18.9;10.6;;;;;;;0.4;77.85449;94635.03;;;;
2021/01/04 04:08:34;;;;;;;18.9;10.6;;;;;;;0.4;77.85449;94635.03;;;;
2021/01/04 04:09:34;;;;;;;18.9;10.6;;;;;;;0.4;77.85449;94635.03;;;;
2021/01/04 04:10:35;;;;;;;20.85;11.5;;;;;;;0.34;77.86328;94627.43;;;;
2021/01/04 04:11:35;;;;;;;20.85;11.5;;;;;;;0.34;77.86328;94627.43;;;;
2021/01/04 04:12:36;;;;;;;20.85;11.5;;;;;;;0.34;77.86328;94627.43;;;;
2021/01/04 04:13:37;;;;;;;20.85;11.5;;;;;;;0.34;77.86328;94627.43;;;;
2021/01/04 04:14:37;;;;;;;20.85;11.5;;;;;;;0.34;77.86328;94627.43;;;;
2021/01/04 04:15:38;;;;;;;20.85;11.5;;;;;;;0.34;77.86328;94627.43;;;;
2021/01/04 04:16:38;;;;;;;20.85;11.5;;;;;;;0.34;77.86328;94627.43;;;;
2021/01/04 04:17:39;;;;;;;20.85;11.5;;;;;;;0.34;77.86328;94627.43;;;;
2021/01/04 04:18:39;;;;;;;20.85;11.5;;;;;;;0.34;77.86328;94627.43;;;;
2021/01/04 04:19:40;;;;;;;20.85;11.5;;;;;;;0.34;77.86328;94627.43;;;;
2021/01/04 04:20:43;;;;;;;17;10.7;;;;;;;0.32;77.94336;94629.86;;;;
2021/01/04 04:21:44;;;;;;;17;10.7;;;;;;;0.32;77.94336;94629.86;;;;
2021/01/04 04:22:50;;;;;;;17;10.7;;;;;;;0.32;77.94336;94629.86;;;;
2021/01/04 04:23:53;;;;;;;17;10.7;;;;;;;0.32;77.94336;94629.86;;;;
2021/01/04 04:24:53;;;;;;;17;10.7;;;;;;;0.32;77.94336;94629.86;;;;
2021/01/04 04:25:54;;;;;;;17;10.7;;;;;;;0.32;77.94336;94629.86;;;;
2021/01/04 04:26:54;;;;;;;17;10.7;;;;;;;0.32;77.94336;94629.86;;;;
2021/01/04 04:27:54;;;;;;;17;10.7;;;;;;;0.32;77.94336;94629.86;;;;
2021/01/04 04:28:56;;;;;;;17;10.7;;;;;;;0.32;77.94336;94629.86;;;;
2021/01/04 04:29:56;;;;;;;17;10.7;;;;;;;0.32;77.94336;94629.86;;;;
2021/01/04 04:30:57;;;;;;;17;10.7;;;;;;;0.32;77.94336;94629.86;;;;
2021/01/04 04:31:57;;;;;;;16.9;10.55;;;;;;;0.29;77.94824;94630.64;;;;
2021/01/04 04:32:58;;;;;;;16.9;10.55;;;;;;;0.29;77.94824;94630.64;;;;
2021/01/04 04:33:59;;;;;;;16.9;10.55;;;;;;;0.29;77.94824;94630.64;;;;
2021/01/04 04:35:00;;;;;;;16.9;10.55;;;;;;;0.29;77.94824;94630.64;;;;
2021/01/04 04:36:00;;;;;;;16.9;10.55;;;;;;;0.29;77.94824;94630.64;;;;
2021/01/04 04:37:01;;;;;;;16.9;10.55;;;;;;;0.29;77.94824;94630.64;;;;
2021/01/04 04:38:02;;;;;;;16.9;10.55;;;;;;;0.29;77.94824;94630.64;;;;
2021/01/04 04:39:02;;;;;;;16.9;10.55;;;;;;;0.29;77.94824;94630.64;;;;
2021/01/04 04:40:03;;;;;;;16.9;10.55;;;;;;;0.29;77.94824;94630.64;;;;
2021/01/04 04:41:07;;;;;;;16.9;10.55;;;;;;;0.29;77.94824;94630.64;;;;
2021/01/04 04:42:10;;;;;;;19.2;11.85;;;;;;;0.22;77.97852;94633.32;;;;
2021/01/04 04:43:13;;;;;;;19.2;11.85;;;;;;;0.22;77.97852;94633.32;;;;
2021/01/04 04:44:20;;;;;;;19.2;11.85;;;;;;;0.22;77.97852;94633.32;;;;
2021/01/04 04:45:28;;;;;;;19.2;11.85;;;;;;;0.22;77.97852;94633.32;;;;
2021/01/04 04:46:28;;;;;;;19.2;11.85;;;;;;;0.22;77.97852;94633.32;;;;
2021/01/04 04:47:41;;;;;;;19.2;11.85;;;;;;;0.22;77.97852;94633.32;;;;
2021/01/04 04:49:00;;;;;;;19.2;11.85;;;;;;;0.22;77.97852;94633.32;;;;
2021/01/04 04:50:09;;;;;;;19.2;11.85;;;;;;;0.22;77.97852;94633.32;;;;
2021/01/04 04:51:20;;;;;;;19.2;11.85;;;;;;;0.22;77.97852;94633.32;;;;
2021/01/04 04:52:31;;;;;;;18.7;10.75;;;;;;;0.21;78.05664;94630.86;;;;
2021/01/04 04:53:47;;;;;;;18.7;10.75;;;;;;;0.21;78.05664;94630.86;;;;
2021/01/04 04:55:18;;;;;;;18.7;10.75;;;;;;;0.21;78.05664;94630.86;;;;
2021/01/04 04:56:37;;;;;;;18.7;10.75;;;;;;;0.21;78.05664;94630.86;;;;
2021/01/04 04:58:23;;;;;;;18.7;10.75;;;;;;;0.21;78.05664;94630.86;;;;
2021/01/04 04:59:39;;;;;;;18.7;10.75;;;;;;;0.21;78.05664;94630.86;;;;
2021/01/04 05:00:51;;;;;;;18.7;10.75;;;;;;;0.21;78.05664;94630.86;;;;
2021/01/04 05:02:35;;;;;;;18.7;10.75;;;;;;;0.21;78.05664;94630.86;;;;
2021/01/04 05:03:47;;;;;;;16.95;10.45;;;;;;;0.2;78.02539;94624.72;;;;
2021/01/04 05:05:10;;;;;;;16.95;10.45;;;;;;;0.2;78.02539;94624.72;;;;
2021/01/04 05:06:20;;;;;;;16.95;10.45;;;;;;;0.2;78.02539;94624.72;;;;
2021/01/04 05:07:33;;;;;;;16.95;10.45;;;;;;;0.2;78.02539;94624.72;;;;
2021/01/04 05:08:44;;;;;;;16.95;10.45;;;;;;;0.2;78.02539;94624.72;;;;
2021/01/04 05:09:53;;;;;;;16.95;10.45;;;;;;;0.2;78.02539;94624.72;;;;
2021/01/04 05:10:58;;;;;;;16.95;10.45;;;;;;;0.2;78.02539;94624.72;;;;
2021/01/04 05:11:59;;;;;;;16.95;10.45;;;;;;;0.2;78.02539;94624.72;;;;
2021/01/04 05:13:09;;;;;;;16.95;10.45;;;;;;;0.2;78.02539;94624.72;;;;
2021/01/04 05:14:19;;;;;;;19;10.45;;;;;;;0.17;77.96582;94630.91;;;;
2021/01/04 05:15:24;;;;;;;19;10.45;;;;;;;0.17;77.96582;94630.91;;;;
2021/01/04 05:16:35;;;;;;;19;10.45;;;;;;;0.17;77.96582;94630.91;;;;
2021/01/04 05:17:50;;;;;;;19;10.45;;;;;;;0.17;77.96582;94630.91;;;;
2021/01/04 05:19:08;;;;;;;19;10.45;;;;;;;0.17;77.96582;94630.91;;;;
2021/01/04 05:20:26;;;;;;;19;10.45;;;;;;;0.17;77.96582;94630.91;;;;
2021/01/04 05:22:06;;;;;;;19;10.45;;;;;;;0.17;77.96582;94630.91;;;;
2021/01/04 05:23:28;;;;;;;19;10.45;;;;;;;0.17;77.96582;94630.91;;;;
2021/01/04 05:25:50;;;;;;;19.35;11.15;;;;;;;0.06;78.05371;94632.65;;;;
2021/01/04 05:27:07;;;;;;;19.35;11.15;;;;;;;0.06;78.05371;94632.65;;;;
2021/01/04 05:32:33;;;;;;;19.35;11.15;;;;;;;0.06;78.05371;94632.65;;;;
2021/01/04 05:33:48;;;;;;;19.35;11.15;;;;;;;0.06;78.05371;94632.65;;;;
2021/01/04 05:35:08;;;;;;;20.45;11.15;;;;;;;0.1;78.1416;94632.68;;;;
2021/01/04 05:36:12;;;;;;;20.45;11.15;;;;;;;0.1;78.1416;94632.68;;;;
2021/01/04 05:37:30;;;;;;;20.45;11.15;;;;;;;0.1;78.1416;94632.68;;;;
2021/01/04 05:38:38;;;;;;;20.45;11.15;;;;;;;0.1;78.1416;94632.68;;;;
2021/01/04 05:39:47;;;;;;;20.45;11.15;;;;;;;0.1;78.1416;94632.68;;;;
2021/01/04 05:41:05;;;;;;;20.45;11.15;;;;;;;0.1;78.1416;94632.68;;;;
2021/01/04 05:42:42;;;;;;;20.45;11.15;;;;;;;0.1;78.1416;94632.68;;;;
2021/01/04 05:43:55;;;;;;;20.45;11.15;;;;;;;0.1;78.1416;94632.68;;;;
2021/01/04 05:45:08;;;;;;;20.45;11.15;;;;;;;0.1;78.1416;94632.68;;;;
2021/01/04 05:46:15;;;;;;;20.3;11.45;;;;;;;0.11;78.0293;94627.59;;;;
2021/01/04 05:47:22;;;;;;;20.3;11.45;;;;;;;0.11;78.0293;94627.59;;;;
2021/01/04 05:48:30;;;;;;;20.3;11.45;;;;;;;0.11;78.0293;94627.59;;;;
2021/01/04 05:49:58;;;;;;;20.3;11.45;;;;;;;0.11;78.0293;94627.59;;;;
2021/01/04 05:51:04;;;;;;;20.3;11.45;;;;;;;0.11;78.0293;94627.59;;;;
2021/01/04 05:52:12;;;;;;;20.3;11.45;;;;;;;0.11;78.0293;94627.59;;;;
2021/01/04 05:53:16;;;;;;;20.3;11.45;;;;;;;0.11;78.0293;94627.59;;;;
2021/01/04 05:54:16;;;;;;;20.3;11.45;;;;;;;0.11;78.0293;94627.59;;;;
2021/01/04 05:55:27;;;;;;;20.3;11.45;;;;;;;0.11;78.0293;94627.59;;;;
2021/01/04 05:56:28;;;;;;;23.85;12.5;;;;;;;0.11;77.99805;94614.33;;;;
2021/01/04 05:57:30;;;;;;;23.85;12.5;;;;;;;0.11;77.99805;94614.33;;;;
2021/01/04 05:58:30;;;;;;;23.85;12.5;;;;;;;0.11;77.99805;94614.33;;;;
2021/01/04 05:59:34;;;;;;;23.85;12.5;;;;;;;0.11;77.99805;94614.33;;;;
2021/01/04 06:00:45;;;;;;;23.85;12.5;;;;;;;0.11;77.99805;94614.33;;;;
2021/01/04 06:01:45;;;;;;;23.85;12.5;;;;;;;0.11;77.99805;94614.33;;;;
2021/01/04 06:02:46;;;;;;;23.85;12.5;;;;;;;0.11;77.99805;94614.33;;;;
2021/01/04 06:03:47;;;;;;;23.85;12.5;;;;;;;0.11;77.99805;94614.33;;;;
2021/01/04 06:04:56;;;;;;;23.85;12.5;;;;;;;0.11;77.99805;94614.33;;;;
2021/01/04 06:06:08;;;;;;;23.85;12.5;;;;;;;0.11;77.99805;94614.33;;;;
2021/01/04 06:07:15;;;;;;;21.85;12.15;;;;;;;0.14;78.03613;94628.56;;;;
2021/01/04 06:08:17;;;;;;;21.85;12.15;;;;;;;0.14;78.03613;94628.56;;;;
2021/01/04 06:09:21;;;;;;;21.85;12.15;;;;;;;0.14;78.03613;94628.56;;;;
2021/01/04 06:10:23;;;;;;;21.85;12.15;;;;;;;0.14;78.03613;94628.56;;;;
2021/01/04 06:11:29;;;;;;;21.85;12.15;;;;;;;0.14;78.03613;94628.56;;;;
2021/01/04 06:12:30;;;;;;;21.85;12.15;;;;;;;0.14;78.03613;94628.56;;;;
2021/01/04 06:13:36;;;;;;;21.85;12.15;;;;;;;0.14;78.03613;94628.56;;;;
2021/01/04 06:14:39;;;;;;;21.85;12.15;;;;;;;0.14;78.03613;94628.56;;;;
2021/01/04 06:15:41;;;;;;;21.85;12.15;;;;;;;0.14;78.03613;94628.56;;;;
2021/01/04 06:16:41;;;;;;;21.85;12.15;;;;;;;0.14;78.03613;94628.56;;;;
2021/01/04 06:17:44;;;;;;;21.85;12.15;;;;;;;0.14;78.03613;94628.56;;;;
2021/01/04 06:18:45;;;;;;;23.40001;12.6;;;;;;;0.09;78.05664;94629.19;;;;
2021/01/04 06:19:50;;;;;;;23.40001;12.6;;;;;;;0.09;78.05664;94629.19;;;;
2021/01/04 06:20:51;;;;;;;23.40001;12.6;;;;;;;0.09;78.05664;94629.19;;;;
2021/01/04 06:22:16;;;;;;;23.40001;12.6;;;;;;;0.09;78.05664;94629.19;;;;
2021/01/04 06:23:18;;;;;;;23.40001;12.6;;;;;;;0.09;78.05664;94629.19;;;;
2021/01/04 06:24:22;;;;;;;23.40001;12.6;;;;;;;0.09;78.05664;94629.19;;;;
2021/01/04 06:25:27;;;;;;;23.40001;12.6;;;;;;;0.09;78.05664;94629.19;;;;
2021/01/04 06:26:32;;;;;;;23.40001;12.6;;;;;;;0.09;78.05664;94629.19;;;;
2021/01/04 06:27:32;;;;;;;23.40001;12.6;;;;;;;0.09;78.05664;94629.19;;;;
2021/01/04 06:28:36;;;;;;;24.90001;13.45;;;;;;;0.03;78.15039;94631.71;;;;
2021/01/04 06:29:46;;;;;;;24.90001;13.45;;;;;;;0.03;78.15039;94631.71;;;;
2021/01/04 06:30:50;;;;;;;24.90001;13.45;;;;;;;0.03;78.15039;94631.71;;;;
2021/01/04 06:32:00;;;;;;;24.90001;13.45;;;;;;;0.03;78.15039;94631.71;;;;
2021/01/04 06:33:03;;;;;;;24.90001;13.45;;;;;;;0.03;78.15039;94631.71;;;;
2021/01/04 06:34:08;;;;;;;24.90001;13.45;;;;;;;0.03;78.15039;94631.71;;;;
2021/01/04 06:35:18;;;;;;;24.90001;13.45;;;;;;;0.03;78.15039;94631.71;;;;
2021/01/04 06:36:24;;;;;;;24.90001;13.45;;;;;;;0.03;78.15039;94631.71;;;;
2021/01/04 06:37:25;;;;;;;24.90001;13.45;;;;;;;0.03;78.15039;94631.71;;;;